ZSMPI FXMU-FAGM
Flight info
| Callsign | ZSMPI |
|---|---|
| Flight time | 0h 53m |
| Altitude | 27000 |
| Route | EGSAN UZ4 TEVAR UZ2 NIBEX |
| Aircraft | B350/L-SBGRW/S |
Departure
| Time | 2026-04-21 19:18 |
|---|---|
| Airport | Mejametalana Air Base (FXMU) |
Arrival
| Time | 2026-04-21 20:11 |
|---|---|
| Airport | Rand Airport (FAGM) |
| Time | Latitude | Longitude | Altitude | Speed | Heading |
|---|---|---|---|---|---|
| 2026-04-21 19:11 | -29.30432 | 27.50104 | 5115 ft | 0 kts | 116° |
| 2026-04-21 19:15 | -29.30433 | 27.50105 | 5115 ft | 1 kts | 144° |
| 2026-04-21 19:15 | -29.30461 | 27.50094 | 5115 ft | 8 kts | 172° |
| 2026-04-21 19:15 | -29.30498 | 27.50141 | 5117 ft | 9 kts | 123° |
| 2026-04-21 19:16 | -29.30487 | 27.50196 | 5118 ft | 10 kts | 24° |
| 2026-04-21 19:16 | -29.30396 | 27.50237 | 5120 ft | 19 kts | 20° |
| 2026-04-21 19:16 | -29.30253 | 27.50311 | 5122 ft | 26 kts | 17° |
| 2026-04-21 19:16 | -29.30083 | 27.50378 | 5123 ft | 26 kts | 22° |
| 2026-04-21 19:17 | -29.29785 | 27.50522 | 5116 ft | 8 kts | 333° |
| 2026-04-21 19:17 | -29.29834 | 27.50486 | 5117 ft | 23 kts | 200° |
| 2026-04-21 19:17 | -29.30219 | 27.50316 | 5122 ft | 93 kts | 201° |
| 2026-04-21 19:18 | -29.30982 | 27.49975 | 5169 ft | 135 kts | 202° |
| 2026-04-21 19:18 | -29.31930 | 27.49637 | 5544 ft | 147 kts | 186° |
| 2026-04-21 19:18 | -29.32970 | 27.49806 | 5941 ft | 163 kts | 152° |
| 2026-04-21 19:18 | -29.33807 | 27.50720 | 6288 ft | 179 kts | 115° |
| 2026-04-21 19:19 | -29.34045 | 27.52124 | 6687 ft | 184 kts | 81° |
| 2026-04-21 19:19 | -29.33657 | 27.53515 | 7159 ft | 183 kts | 53° |
| 2026-04-21 19:19 | -29.32737 | 27.54414 | 7740 ft | 174 kts | 19° |
| 2026-04-21 19:19 | -29.31576 | 27.54536 | 8351 ft | 168 kts | 343° |
| 2026-04-21 19:20 | -29.30578 | 27.53864 | 8798 ft | 174 kts | 309° |
| 2026-04-21 19:20 | -29.29922 | 27.52722 | 9379 ft | 171 kts | 300° |
| 2026-04-21 19:20 | -29.29276 | 27.51581 | 9972 ft | 171 kts | 304° |
| 2026-04-21 19:20 | -29.28468 | 27.50570 | 10503 ft | 173 kts | 314° |
| 2026-04-21 19:21 | -29.27515 | 27.49757 | 11030 ft | 175 kts | 323° |
| 2026-04-21 19:21 | -29.26381 | 27.49204 | 11548 ft | 180 kts | 337° |
| 2026-04-21 19:21 | -29.25152 | 27.48843 | 11980 ft | 183 kts | 339° |
| 2026-04-21 19:21 | -29.23924 | 27.48513 | 12540 ft | 179 kts | 338° |
| 2026-04-21 19:22 | -29.22714 | 27.48178 | 13018 ft | 180 kts | 337° |
| 2026-04-21 19:22 | -29.21488 | 27.47833 | 13504 ft | 182 kts | 336° |
| 2026-04-21 19:22 | -29.20254 | 27.47488 | 14023 ft | 183 kts | 336° |
| 2026-04-21 19:22 | -29.19022 | 27.47144 | 14500 ft | 182 kts | 336° |
| 2026-04-21 19:23 | -29.17810 | 27.46807 | 14957 ft | 182 kts | 336° |
| 2026-04-21 19:23 | -29.16585 | 27.46464 | 15417 ft | 183 kts | 336° |
| 2026-04-21 19:23 | -29.15319 | 27.46106 | 15743 ft | 188 kts | 336° |
| 2026-04-21 19:23 | -29.14036 | 27.45750 | 16147 ft | 192 kts | 336° |
| 2026-04-21 19:24 | -29.12733 | 27.45385 | 16549 ft | 194 kts | 336° |
| 2026-04-21 19:24 | -29.11419 | 27.45020 | 16951 ft | 195 kts | 335° |
| 2026-04-21 19:24 | -29.10102 | 27.44653 | 17360 ft | 194 kts | 335° |
| 2026-04-21 19:24 | -29.08788 | 27.44286 | 17774 ft | 195 kts | 335° |
| 2026-04-21 19:25 | -29.07474 | 27.43919 | 18193 ft | 194 kts | 335° |
| 2026-04-21 19:25 | -29.06176 | 27.43557 | 18584 ft | 194 kts | 335° |
| 2026-04-21 19:25 | -29.04870 | 27.43194 | 18949 ft | 193 kts | 335° |
| 2026-04-21 19:25 | -29.03570 | 27.42831 | 19316 ft | 192 kts | 334° |
| 2026-04-21 19:26 | -29.02280 | 27.42472 | 19686 ft | 190 kts | 334° |
| 2026-04-21 19:26 | -29.01003 | 27.42116 | 20062 ft | 188 kts | 334° |
| 2026-04-21 19:26 | -28.99738 | 27.41764 | 20441 ft | 186 kts | 334° |
| 2026-04-21 19:26 | -28.98489 | 27.41416 | 20824 ft | 184 kts | 334° |
| 2026-04-21 19:27 | -28.97258 | 27.41074 | 21214 ft | 181 kts | 334° |
| 2026-04-21 19:27 | -28.96047 | 27.40736 | 21604 ft | 178 kts | 333° |
| 2026-04-21 19:27 | -28.94870 | 27.40409 | 21999 ft | 175 kts | 333° |
| 2026-04-21 19:27 | -28.93696 | 27.40081 | 22402 ft | 173 kts | 333° |
| 2026-04-21 19:28 | -28.92539 | 27.39760 | 22811 ft | 170 kts | 333° |
| 2026-04-21 19:28 | -28.91403 | 27.39444 | 23220 ft | 166 kts | 333° |
| 2026-04-21 19:28 | -28.90289 | 27.39134 | 23634 ft | 164 kts | 333° |
| 2026-04-21 19:28 | -28.89195 | 27.38830 | 23998 ft | 160 kts | 332° |
| 2026-04-21 19:29 | -28.88130 | 27.38534 | 24345 ft | 155 kts | 332° |
| 2026-04-21 19:29 | -28.87093 | 27.38246 | 24695 ft | 152 kts | 332° |
| 2026-04-21 19:29 | -28.86082 | 27.37965 | 25050 ft | 147 kts | 331° |
| 2026-04-21 19:29 | -28.85112 | 27.37696 | 25404 ft | 144 kts | 331° |
| 2026-04-21 19:30 | -28.84156 | 27.37431 | 25765 ft | 139 kts | 331° |
| 2026-04-21 19:30 | -28.83235 | 27.37175 | 26131 ft | 134 kts | 330° |
| 2026-04-21 19:30 | -28.82344 | 27.36928 | 26507 ft | 130 kts | 330° |
| 2026-04-21 19:30 | -28.81484 | 27.36689 | 26878 ft | 125 kts | 329° |
| 2026-04-21 19:31 | -28.80644 | 27.36452 | 27120 ft | 128 kts | 329° |
| 2026-04-21 19:31 | -28.79724 | 27.36185 | 27120 ft | 145 kts | 331° |
| 2026-04-21 19:31 | -28.78699 | 27.35899 | 27130 ft | 159 kts | 332° |
| 2026-04-21 19:31 | -28.77581 | 27.35590 | 27139 ft | 172 kts | 333° |
| 2026-04-21 19:32 | -28.76394 | 27.35262 | 27142 ft | 184 kts | 333° |
| 2026-04-21 19:32 | -28.75114 | 27.34910 | 27139 ft | 194 kts | 334° |
| 2026-04-21 19:32 | -28.73765 | 27.34538 | 27141 ft | 204 kts | 334° |
| 2026-04-21 19:32 | -28.72362 | 27.34149 | 27145 ft | 211 kts | 335° |
| 2026-04-21 19:33 | -28.71405 | 27.33886 | 27140 ft | 216 kts | 335° |
| 2026-04-21 19:33 | -28.69420 | 27.33339 | 27143 ft | 223 kts | 335° |
| 2026-04-21 19:33 | -28.67899 | 27.32918 | 27143 ft | 227 kts | 335° |
| 2026-04-21 19:33 | -28.66352 | 27.32490 | 27141 ft | 231 kts | 335° |
| 2026-04-21 19:34 | -28.64782 | 27.32056 | 27138 ft | 234 kts | 336° |
| 2026-04-21 19:34 | -28.63216 | 27.31623 | 27139 ft | 236 kts | 336° |
| 2026-04-21 19:34 | -28.61612 | 27.31181 | 27137 ft | 238 kts | 336° |
| 2026-04-21 19:34 | -28.59996 | 27.30734 | 27138 ft | 240 kts | 336° |
| 2026-04-21 19:35 | -28.58373 | 27.30286 | 27140 ft | 241 kts | 336° |
| 2026-04-21 19:35 | -28.55106 | 27.29383 | 27138 ft | 242 kts | 336° |
| 2026-04-21 19:35 | -28.53464 | 27.28930 | 27140 ft | 243 kts | 336° |
| 2026-04-21 19:36 | -28.51817 | 27.28475 | 27142 ft | 244 kts | 336° |
| 2026-04-21 19:36 | -28.50164 | 27.28020 | 27142 ft | 245 kts | 336° |
| 2026-04-21 19:36 | -28.48530 | 27.27569 | 27139 ft | 245 kts | 336° |
| 2026-04-21 19:36 | -28.46872 | 27.27112 | 27140 ft | 245 kts | 336° |
| 2026-04-21 19:37 | -28.45212 | 27.26654 | 27142 ft | 246 kts | 336° |
| 2026-04-21 19:37 | -28.43546 | 27.26195 | 27140 ft | 246 kts | 336° |
| 2026-04-21 19:37 | -28.41881 | 27.25737 | 27140 ft | 246 kts | 336° |
| 2026-04-21 19:37 | -28.40216 | 27.25278 | 27140 ft | 247 kts | 336° |
| 2026-04-21 19:38 | -28.38545 | 27.24818 | 27140 ft | 247 kts | 336° |
| 2026-04-21 19:38 | -28.36874 | 27.24358 | 27139 ft | 247 kts | 336° |
| 2026-04-21 19:38 | -28.35767 | 27.24053 | 27139 ft | 248 kts | 336° |
| 2026-04-21 19:38 | -28.33548 | 27.23442 | 27142 ft | 248 kts | 336° |
| 2026-04-21 19:39 | -28.31870 | 27.22982 | 27139 ft | 248 kts | 336° |
| 2026-04-21 19:39 | -28.30192 | 27.22521 | 27140 ft | 248 kts | 336° |
| 2026-04-21 19:39 | -28.28514 | 27.22059 | 27137 ft | 248 kts | 336° |
| 2026-04-21 19:39 | -28.26836 | 27.21598 | 27138 ft | 248 kts | 337° |
| 2026-04-21 19:40 | -28.25158 | 27.21137 | 27137 ft | 249 kts | 337° |
| 2026-04-21 19:40 | -28.23475 | 27.20675 | 27140 ft | 249 kts | 337° |
| 2026-04-21 19:40 | -28.21790 | 27.20214 | 27134 ft | 249 kts | 337° |
| 2026-04-21 19:40 | -28.20126 | 27.19757 | 27135 ft | 249 kts | 337° |
| 2026-04-21 19:41 | -28.18442 | 27.19295 | 27135 ft | 249 kts | 337° |
| 2026-04-21 19:41 | -28.16754 | 27.18833 | 27133 ft | 249 kts | 337° |
| 2026-04-21 19:41 | -28.15068 | 27.18370 | 27133 ft | 249 kts | 337° |
| 2026-04-21 19:41 | -28.13381 | 27.17907 | 27134 ft | 249 kts | 337° |
| 2026-04-21 19:42 | -28.11695 | 27.17446 | 27133 ft | 249 kts | 337° |
| 2026-04-21 19:42 | -28.10007 | 27.16984 | 27129 ft | 250 kts | 337° |
| 2026-04-21 19:42 | -28.08320 | 27.16522 | 27132 ft | 250 kts | 337° |
| 2026-04-21 19:42 | -28.06632 | 27.16060 | 27132 ft | 250 kts | 337° |
| 2026-04-21 19:43 | -28.04944 | 27.15599 | 27136 ft | 249 kts | 337° |
| 2026-04-21 19:43 | -28.03280 | 27.15143 | 27133 ft | 249 kts | 337° |
| 2026-04-21 19:43 | -28.01593 | 27.14682 | 27131 ft | 250 kts | 337° |
| 2026-04-21 19:43 | -27.99853 | 27.14403 | 27146 ft | 262 kts | 351° |
| 2026-04-21 19:44 | -27.98008 | 27.14712 | 27148 ft | 273 kts | 359° |
| 2026-04-21 19:44 | -27.96154 | 27.15193 | 27148 ft | 273 kts | 359° |
| 2026-04-21 19:44 | -27.94299 | 27.15611 | 27145 ft | 271 kts | 357° |
| 2026-04-21 19:44 | -27.92444 | 27.15978 | 27146 ft | 271 kts | 357° |
| 2026-04-21 19:45 | -27.90587 | 27.16355 | 27142 ft | 272 kts | 358° |
| 2026-04-21 19:45 | -27.88754 | 27.16744 | 27149 ft | 272 kts | 358° |
| 2026-04-21 19:45 | -27.86897 | 27.17137 | 27146 ft | 272 kts | 358° |
| 2026-04-21 19:45 | -27.85037 | 27.17525 | 27144 ft | 271 kts | 358° |
| 2026-04-21 19:46 | -27.83182 | 27.17912 | 27144 ft | 271 kts | 358° |
| 2026-04-21 19:46 | -27.81322 | 27.18301 | 27142 ft | 272 kts | 358° |
| 2026-04-21 19:46 | -27.79466 | 27.18689 | 27138 ft | 272 kts | 358° |
| 2026-04-21 19:46 | -27.77607 | 27.19076 | 27138 ft | 272 kts | 358° |
| 2026-04-21 19:47 | -27.75750 | 27.19465 | 27137 ft | 271 kts | 358° |
| 2026-04-21 19:47 | -27.73895 | 27.19853 | 27142 ft | 271 kts | 358° |
| 2026-04-21 19:47 | -27.72067 | 27.20234 | 27139 ft | 271 kts | 358° |
| 2026-04-21 19:47 | -27.70211 | 27.20621 | 27136 ft | 271 kts | 358° |
| 2026-04-21 19:48 | -27.68355 | 27.21008 | 27137 ft | 272 kts | 358° |
| 2026-04-21 19:48 | -27.66495 | 27.21396 | 27139 ft | 272 kts | 358° |
| 2026-04-21 19:48 | -27.64637 | 27.21783 | 27138 ft | 272 kts | 358° |
| 2026-04-21 19:48 | -27.62781 | 27.22170 | 27136 ft | 272 kts | 358° |
| 2026-04-21 19:49 | -27.60920 | 27.22557 | 27135 ft | 272 kts | 358° |
| 2026-04-21 19:49 | -27.59060 | 27.22945 | 27133 ft | 272 kts | 358° |
| 2026-04-21 19:49 | -27.57195 | 27.23333 | 27138 ft | 272 kts | 358° |
| 2026-04-21 19:49 | -27.55359 | 27.23715 | 27138 ft | 272 kts | 358° |
| 2026-04-21 19:50 | -27.54099 | 27.23977 | 27140 ft | 272 kts | 358° |
| 2026-04-21 19:50 | -27.51632 | 27.24490 | 27138 ft | 272 kts | 358° |
| 2026-04-21 19:50 | -27.49766 | 27.24878 | 27135 ft | 273 kts | 358° |
| 2026-04-21 19:50 | -27.47902 | 27.25265 | 27136 ft | 272 kts | 358° |
| 2026-04-21 19:51 | -27.46036 | 27.25653 | 27135 ft | 272 kts | 358° |
| 2026-04-21 19:51 | -27.44173 | 27.26039 | 27134 ft | 273 kts | 358° |
| 2026-04-21 19:51 | -27.42307 | 27.26427 | 27132 ft | 273 kts | 358° |
| 2026-04-21 19:51 | -27.40441 | 27.26814 | 27135 ft | 273 kts | 358° |
| 2026-04-21 19:52 | -27.38574 | 27.27201 | 27130 ft | 273 kts | 358° |
| 2026-04-21 19:52 | -27.36732 | 27.27583 | 27134 ft | 273 kts | 358° |
| 2026-04-21 19:52 | -27.34865 | 27.27970 | 27132 ft | 273 kts | 358° |
| 2026-04-21 19:52 | -27.32999 | 27.28356 | 27133 ft | 273 kts | 358° |
| 2026-04-21 19:53 | -27.31131 | 27.28744 | 27131 ft | 273 kts | 358° |
| 2026-04-21 19:53 | -27.29263 | 27.29130 | 27134 ft | 273 kts | 358° |
| 2026-04-21 19:53 | -27.27393 | 27.29517 | 27132 ft | 273 kts | 358° |
| 2026-04-21 19:53 | -27.25524 | 27.29904 | 27134 ft | 273 kts | 358° |
| 2026-04-21 19:54 | -27.23681 | 27.30286 | 27131 ft | 273 kts | 358° |
| 2026-04-21 19:54 | -27.21813 | 27.30675 | 27131 ft | 274 kts | 359° |
| 2026-04-21 19:54 | -27.19974 | 27.31449 | 27147 ft | 295 kts | 18° |
| 2026-04-21 19:54 | -27.18300 | 27.32888 | 27148 ft | 309 kts | 28° |
| 2026-04-21 19:55 | -27.16721 | 27.34555 | 27156 ft | 312 kts | 30° |
| 2026-04-21 19:55 | -27.15126 | 27.36180 | 27154 ft | 308 kts | 27° |
| 2026-04-21 19:55 | -27.13479 | 27.37697 | 27148 ft | 306 kts | 25° |
| 2026-04-21 19:55 | -27.11832 | 27.39211 | 27152 ft | 307 kts | 26° |
| 2026-04-21 19:56 | -27.10187 | 27.40774 | 26919 ft | 314 kts | 27° |
| 2026-04-21 19:56 | -27.08516 | 27.42369 | 26511 ft | 317 kts | 27° |
| 2026-04-21 19:56 | -27.06852 | 27.43951 | 26089 ft | 319 kts | 27° |
| 2026-04-21 19:56 | -27.05152 | 27.45555 | 25674 ft | 320 kts | 27° |
| 2026-04-21 19:57 | -27.03441 | 27.47169 | 25261 ft | 322 kts | 28° |
| 2026-04-21 19:57 | -27.01725 | 27.48794 | 24864 ft | 324 kts | 28° |
| 2026-04-21 19:57 | -26.99998 | 27.50427 | 24465 ft | 325 kts | 28° |
| 2026-04-21 19:57 | -26.98264 | 27.52064 | 24070 ft | 326 kts | 28° |
| 2026-04-21 19:58 | -26.96527 | 27.53704 | 23668 ft | 327 kts | 29° |
| 2026-04-21 19:58 | -26.94783 | 27.55351 | 23205 ft | 328 kts | 29° |
| 2026-04-21 19:58 | -26.93060 | 27.56976 | 22743 ft | 328 kts | 30° |
| 2026-04-21 19:58 | -26.91314 | 27.58622 | 22290 ft | 329 kts | 30° |
| 2026-04-21 19:59 | -26.89563 | 27.60274 | 21843 ft | 329 kts | 30° |
| 2026-04-21 19:59 | -26.87811 | 27.61925 | 21405 ft | 329 kts | 30° |
| 2026-04-21 19:59 | -26.86057 | 27.63576 | 20969 ft | 329 kts | 31° |
| 2026-04-21 19:59 | -26.84304 | 27.65226 | 20542 ft | 329 kts | 31° |
| 2026-04-21 20:00 | -26.82553 | 27.66874 | 20121 ft | 329 kts | 31° |
| 2026-04-21 20:00 | -26.80734 | 27.68390 | 19712 ft | 325 kts | 27° |
| 2026-04-21 20:00 | -26.78910 | 27.69900 | 19308 ft | 327 kts | 28° |
| 2026-04-21 20:00 | -26.77123 | 27.71412 | 18917 ft | 327 kts | 28° |
| 2026-04-21 20:01 | -26.75305 | 27.72927 | 18522 ft | 326 kts | 28° |
| 2026-04-21 20:01 | -26.73475 | 27.74437 | 18070 ft | 326 kts | 28° |
| 2026-04-21 20:01 | -26.71652 | 27.75946 | 17612 ft | 326 kts | 29° |
| 2026-04-21 20:01 | -26.69828 | 27.77446 | 17173 ft | 325 kts | 29° |
| 2026-04-21 20:02 | -26.68618 | 27.78433 | 16883 ft | 324 kts | 29° |
| 2026-04-21 20:02 | -26.66177 | 27.80404 | 16305 ft | 323 kts | 29° |
| 2026-04-21 20:02 | -26.64349 | 27.81862 | 15876 ft | 322 kts | 29° |
| 2026-04-21 20:02 | -26.62549 | 27.83282 | 15468 ft | 321 kts | 29° |
| 2026-04-21 20:03 | -26.60717 | 27.84714 | 15049 ft | 320 kts | 29° |
| 2026-04-21 20:03 | -26.58889 | 27.86126 | 14640 ft | 319 kts | 29° |
| 2026-04-21 20:03 | -26.57057 | 27.87522 | 14220 ft | 318 kts | 29° |
| 2026-04-21 20:03 | -26.55226 | 27.88903 | 13775 ft | 317 kts | 29° |
| 2026-04-21 20:04 | -26.53390 | 27.90275 | 13318 ft | 317 kts | 29° |
| 2026-04-21 20:04 | -26.51560 | 27.91634 | 12869 ft | 317 kts | 29° |
| 2026-04-21 20:04 | -26.49721 | 27.92992 | 12431 ft | 316 kts | 29° |
| 2026-04-21 20:04 | -26.47882 | 27.94341 | 11992 ft | 316 kts | 29° |
| 2026-04-21 20:05 | -26.46072 | 27.95658 | 11559 ft | 314 kts | 29° |
| 2026-04-21 20:05 | -26.44241 | 27.96985 | 11126 ft | 313 kts | 30° |
| 2026-04-21 20:05 | -26.42411 | 27.98300 | 10740 ft | 312 kts | 29° |
| 2026-04-21 20:05 | -26.40595 | 27.99602 | 10387 ft | 309 kts | 29° |
| 2026-04-21 20:06 | -26.38812 | 28.00911 | 10016 ft | 306 kts | 35° |
| 2026-04-21 20:06 | -26.37390 | 28.02679 | 9650 ft | 308 kts | 53° |
| 2026-04-21 20:06 | -26.36221 | 28.04671 | 9268 ft | 306 kts | 54° |
| 2026-04-21 20:06 | -26.34831 | 28.06345 | 8886 ft | 291 kts | 33° |
| 2026-04-21 20:07 | -26.33057 | 28.07262 | 8489 ft | 275 kts | 12° |
| 2026-04-21 20:07 | -26.31199 | 28.07611 | 8005 ft | 269 kts | 5° |
| 2026-04-21 20:07 | -26.29961 | 28.07767 | 7615 ft | 261 kts | 3° |
| 2026-04-21 20:07 | -26.27671 | 28.07812 | 7205 ft | 235 kts | 358° |
| 2026-04-21 20:08 | -26.26143 | 28.08009 | 7109 ft | 208 kts | 19° |
| 2026-04-21 20:08 | -26.25083 | 28.08919 | 6976 ft | 184 kts | 56° |
| 2026-04-21 20:08 | -26.24775 | 28.10146 | 6880 ft | 148 kts | 97° |
| 2026-04-21 20:08 | -26.25138 | 28.11119 | 6675 ft | 131 kts | 124° |
| 2026-04-21 20:09 | -26.25762 | 28.11902 | 6516 ft | 138 kts | 142° |
| 2026-04-21 20:09 | -26.26557 | 28.12481 | 6432 ft | 136 kts | 149° |
| 2026-04-21 20:09 | -26.27368 | 28.13029 | 6336 ft | 137 kts | 149° |
| 2026-04-21 20:09 | -26.28156 | 28.13574 | 6292 ft | 134 kts | 136° |
| 2026-04-21 20:10 | -26.28552 | 28.14486 | 6169 ft | 135 kts | 91° |
| 2026-04-21 20:10 | -26.28281 | 28.15465 | 6073 ft | 133 kts | 57° |
| 2026-04-21 20:10 | -26.27653 | 28.16195 | 6054 ft | 129 kts | 32° |
| 2026-04-21 20:10 | -26.26784 | 28.16297 | 5958 ft | 134 kts | 344° |
| 2026-04-21 20:11 | -26.25909 | 28.15897 | 5760 ft | 135 kts | 339° |
| 2026-04-21 20:11 | -26.25079 | 28.15505 | 5596 ft | 125 kts | 339° |
| 2026-04-21 20:11 | -26.24327 | 28.15153 | 5497 ft | 99 kts | 336° |
| 2026-04-21 20:11 | -26.23991 | 28.14994 | 5498 ft | 26 kts | 338° |
| 2026-04-21 20:12 | -26.23952 | 28.15006 | 5498 ft | 8 kts | 69° |
| 2026-04-21 20:12 | -26.23937 | 28.15065 | 5496 ft | 6 kts | 116° |
| 2026-04-21 20:12 | -26.23968 | 28.15085 | 5496 ft | 10 kts | 159° |
| 2026-04-21 20:12 | -26.24066 | 28.15140 | 5496 ft | 14 kts | 125° |
| 2026-04-21 20:13 | -26.24069 | 28.15241 | 5496 ft | 12 kts | 78° |
| 2026-04-21 20:13 | -26.24028 | 28.15235 | 5495 ft | 8 kts | 261° |
| 2026-04-21 20:13 | -26.24049 | 28.15221 | 5496 ft | 0 kts | 197° |